sensor_id;sensor_type;location;lat;lon;timestamp;pressure;altitude;pressure_sealevel;temperature;humidity
8059;BME280;4072;42.668;23.396;2023-04-23T00:02:19;95066.94;;;9.00;100.00
8059;BME280;4072;42.668;23.396;2023-04-23T00:04:49;95071.72;;;8.84;100.00
8059;BME280;4072;42.668;23.396;2023-04-23T00:07:19;95060.31;;;8.80;100.00
8059;BME280;4072;42.668;23.396;2023-04-23T00:09:49;95059.03;;;8.72;100.00
8059;BME280;4072;42.668;23.396;2023-04-23T00:12:19;95064.72;;;8.74;100.00
8059;BME280;4072;42.668;23.396;2023-04-23T00:14:50;95064.19;;;8.79;100.00
8059;BME280;4072;42.668;23.396;2023-04-23T00:17:20;95067.34;;;8.65;100.00
8059;BME280;4072;42.668;23.396;2023-04-23T00:19:49;95061.50;;;8.79;100.00
8059;BME280;4072;42.668;23.396;2023-04-23T00:22:17;95058.78;;;8.66;100.00
8059;BME280;4072;42.668;23.396;2023-04-23T00:24:47;95057.06;;;8.72;100.00
8059;BME280;4072;42.668;23.396;2023-04-23T00:27:15;95071.13;;;8.67;100.00
8059;BME280;4072;42.668;23.396;2023-04-23T00:29:46;95067.56;;;8.58;100.00
8059;BME280;4072;42.668;23.396;2023-04-23T00:32:17;95066.38;;;8.46;100.00
8059;BME280;4072;42.668;23.396;2023-04-23T00:34:45;95059.59;;;8.42;100.00
8059;BME280;4072;42.668;23.396;2023-04-23T00:37:15;95021.66;;;8.24;100.00
8059;BME280;4072;42.668;23.396;2023-04-23T00:39:43;95053.53;;;8.63;100.00
8059;BME280;4072;42.668;23.396;2023-04-23T00:42:11;95053.97;;;8.49;100.00
8059;BME280;4072;42.668;23.396;2023-04-23T00:44:40;95052.13;;;8.46;100.00
8059;BME280;4072;42.668;23.396;2023-04-23T00:47:09;95054.63;;;8.28;100.00
8059;BME280;4072;42.668;23.396;2023-04-23T00:49:41;95057.09;;;8.35;100.00
8059;BME280;4072;42.668;23.396;2023-04-23T00:52:09;95055.69;;;8.43;100.00
8059;BME280;4072;42.668;23.396;2023-04-23T00:54:37;95064.34;;;8.38;100.00
8059;BME280;4072;42.668;23.396;2023-04-23T00:57:05;95056.56;;;8.27;100.00
8059;BME280;4072;42.668;23.396;2023-04-23T00:59:34;95061.19;;;8.14;100.00
8059;BME280;4072;42.668;23.396;2023-04-23T01:02:02;95050.69;;;8.04;100.00
8059;BME280;4072;42.668;23.396;2023-04-23T01:04:31;95066.56;;;8.02;100.00
8059;BME280;4072;42.668;23.396;2023-04-23T01:07:02;95061.47;;;8.04;100.00
8059;BME280;4072;42.668;23.396;2023-04-23T01:09:30;95058.06;;;8.03;100.00
8059;BME280;4072;42.668;23.396;2023-04-23T01:12:00;95072.25;;;8.04;100.00
8059;BME280;4072;42.668;23.396;2023-04-23T01:14:29;95067.06;;;7.97;100.00
8059;BME280;4072;42.668;23.396;2023-04-23T01:16:57;95067.06;;;7.97;100.00
8059;BME280;4072;42.668;23.396;2023-04-23T01:19:28;95056.09;;;8.04;100.00
8059;BME280;4072;42.668;23.396;2023-04-23T01:21:56;95042.72;;;7.88;100.00
8059;BME280;4072;42.668;23.396;2023-04-23T01:24:28;95056.00;;;8.07;100.00
8059;BME280;4072;42.668;23.396;2023-04-23T01:26:56;94992.41;;;7.72;100.00
8059;BME280;4072;42.668;23.396;2023-04-23T01:29:25;95055.28;;;8.32;100.00
8059;BME280;4072;42.668;23.396;2023-04-23T01:31:54;95045.75;;;8.15;100.00
8059;BME280;4072;42.668;23.396;2023-04-23T01:34:23;95071.66;;;8.25;100.00
8059;BME280;4072;42.668;23.396;2023-04-23T01:36:51;95058.06;;;8.16;100.00
8059;BME280;4072;42.668;23.396;2023-04-23T01:39:20;95060.31;;;8.17;100.00
8059;BME280;4072;42.668;23.396;2023-04-23T01:41:51;95071.84;;;8.18;100.00
8059;BME280;4072;42.668;23.396;2023-04-23T01:44:21;95069.69;;;8.13;100.00
8059;BME280;4072;42.668;23.396;2023-04-23T01:46:50;95079.84;;;8.21;100.00
8059;BME280;4072;42.668;23.396;2023-04-23T01:49:18;95066.00;;;8.07;100.00
8059;BME280;4072;42.668;23.396;2023-04-23T01:51:47;95074.22;;;8.16;100.00
8059;BME280;4072;42.668;23.396;2023-04-23T01:54:15;95063.22;;;8.10;100.00
8059;BME280;4072;42.668;23.396;2023-04-23T01:56:44;95074.22;;;8.16;100.00
8059;BME280;4072;42.668;23.396;2023-04-23T01:59:16;95072.69;;;8.15;100.00
8059;BME280;4072;42.668;23.396;2023-04-23T02:01:45;95085.22;;;8.09;100.00
8059;BME280;4072;42.668;23.396;2023-04-23T02:04:14;95081.97;;;8.14;100.00
8059;BME280;4072;42.668;23.396;2023-04-23T02:06:46;95063.66;;;8.09;100.00
8059;BME280;4072;42.668;23.396;2023-04-23T02:09:14;95075.59;;;8.08;100.00
8059;BME280;4072;42.668;23.396;2023-04-23T02:11:43;95072.69;;;8.15;100.00
8059;BME280;4072;42.668;23.396;2023-04-23T02:14:11;95075.22;;;8.22;100.00
8059;BME280;4072;42.668;23.396;2023-04-23T02:16:41;95076.50;;;8.17;100.00
8059;BME280;4072;42.668;23.396;2023-04-23T02:19:10;95041.00;;;7.94;100.00
8059;BME280;4072;42.668;23.396;2023-04-23T02:21:41;95074.66;;;8.14;100.00
8059;BME280;4072;42.668;23.396;2023-04-23T02:24:09;95070.31;;;8.04;100.00
8059;BME280;4072;42.668;23.396;2023-04-23T02:26:37;95065.56;;;7.96;100.00
8059;BME280;4072;42.668;23.396;2023-04-23T02:29:05;95074.63;;;8.02;100.00
8059;BME280;4072;42.668;23.396;2023-04-23T02:31:34;95079.59;;;8.03;100.00
8059;BME280;4072;42.668;23.396;2023-04-23T02:34:03;95083.03;;;8.04;100.00
8059;BME280;4072;42.668;23.396;2023-04-23T02:36:34;95084.66;;;8.01;100.00
8059;BME280;4072;42.668;23.396;2023-04-23T02:39:03;95086.47;;;7.92;100.00
8059;BME280;4072;42.668;23.396;2023-04-23T02:41:32;95071.59;;;7.87;100.00
8059;BME280;4072;42.668;23.396;2023-04-23T02:44:00;95080.88;;;7.99;100.00
8059;BME280;4072;42.668;23.396;2023-04-23T02:46:28;95080.84;;;7.86;100.00
8059;BME280;4072;42.668;23.396;2023-04-23T02:48:57;95091.41;;;7.81;100.00
8059;BME280;4072;42.668;23.396;2023-04-23T02:51:27;95073.25;;;7.69;100.00
8059;BME280;4072;42.668;23.396;2023-04-23T02:53:55;95079.91;;;7.52;100.00
8059;BME280;4072;42.668;23.396;2023-04-23T02:56:23;95080.94;;;7.42;100.00
8059;BME280;4072;42.668;23.396;2023-04-23T02:58:51;95085.69;;;7.38;100.00
8059;BME280;4072;42.668;23.396;2023-04-23T03:01:20;95095.56;;;7.41;100.00
8059;BME280;4072;42.668;23.396;2023-04-23T03:03:48;95077.25;;;7.36;100.00
8059;BME280;4072;42.668;23.396;2023-04-23T03:06:16;95085.75;;;7.34;100.00
8059;BME280;4072;42.668;23.396;2023-04-23T03:08:46;95064.72;;;7.17;100.00
8059;BME280;4072;42.668;23.396;2023-04-23T03:11:14;95086.38;;;7.26;100.00
8059;BME280;4072;42.668;23.396;2023-04-23T03:13:42;95091.44;;;7.24;100.00
8059;BME280;4072;42.668;23.396;2023-04-23T03:16:11;95094.44;;;7.26;100.00
8059;BME280;4072;42.668;23.396;2023-04-23T03:18:39;95088.91;;;7.17;100.00
8059;BME280;4072;42.668;23.396;2023-04-23T03:21:07;95093.19;;;7.14;100.00
8059;BME280;4072;42.668;23.396;2023-04-23T03:23:35;95098.38;;;7.21;100.00
8059;BME280;4072;42.668;23.396;2023-04-23T03:26:05;95096.13;;;7.20;100.00
8059;BME280;4072;42.668;23.396;2023-04-23T03:28:33;95096.28;;;7.29;100.00
8059;BME280;4072;42.668;23.396;2023-04-23T03:31:00;95098.78;;;7.36;100.00
8059;BME280;4072;42.668;23.396;2023-04-23T03:33:28;95104.81;;;7.40;100.00
8059;BME280;4072;42.668;23.396;2023-04-23T03:35:57;95107.03;;;7.45;100.00
8059;BME280;4072;42.668;23.396;2023-04-23T03:38:25;95098.78;;;7.36;100.00
8059;BME280;4072;42.668;23.396;2023-04-23T03:40:55;95110.56;;;7.42;100.00
8059;BME280;4072;42.668;23.396;2023-04-23T03:43:24;95109.38;;;7.43;100.00
8059;BME280;4072;42.668;23.396;2023-04-23T03:45:53;95106.53;;;7.34;100.00
8059;BME280;4072;42.668;23.396;2023-04-23T03:48:21;95110.22;;;7.40;100.00
8059;BME280;4072;42.668;23.396;2023-04-23T03:50:49;95094.38;;;7.13;100.00
8059;BME280;4072;42.668;23.396;2023-04-23T03:53:17;95117.38;;;7.30;100.00
8059;BME280;4072;42.668;23.396;2023-04-23T03:55:45;95116.63;;;7.30;100.00
8059;BME280;4072;42.668;23.396;2023-04-23T03:58:13;95111.28;;;7.42;100.00
8059;BME280;4072;42.668;23.396;2023-04-23T04:00:43;95112.59;;;7.38;100.00
8059;BME280;4072;42.668;23.396;2023-04-23T04:03:12;95119.66;;;7.32;100.00
8059;BME280;4072;42.668;23.396;2023-04-23T04:05:41;95121.16;;;7.33;100.00
8059;BME280;4072;42.668;23.396;2023-04-23T04:08:10;95128.09;;;7.18;100.00
8059;BME280;4072;42.668;23.396;2023-04-23T04:10:39;95128.25;;;7.11;100.00
8059;BME280;4072;42.668;23.396;2023-04-23T04:13:08;95135.16;;;6.96;100.00
8059;BME280;4072;42.668;23.396;2023-04-23T04:15:37;95126.25;;;6.83;100.00
8059;BME280;4072;42.668;23.396;2023-04-23T04:18:06;95131.81;;;6.76;100.00
8059;BME280;4072;42.668;23.396;2023-04-23T04:20:34;95135.69;;;6.75;100.00
8059;BME280;4072;42.668;23.396;2023-04-23T04:23:04;95131.81;;;6.76;100.00
8059;BME280;4072;42.668;23.396;2023-04-23T04:25:32;95121.56;;;6.71;100.00
8059;BME280;4072;42.668;23.396;2023-04-23T04:28:06;95136.41;;;6.75;100.00
8059;BME280;4072;42.668;23.396;2023-04-23T04:30:35;95137.84;;;6.80;100.00
8059;BME280;4072;42.668;23.396;2023-04-23T04:33:04;95140.19;;;6.94;100.00
8059;BME280;4072;42.668;23.396;2023-04-23T04:35:35;95148.09;;;7.01;100.00
8059;BME280;4072;42.668;23.396;2023-04-23T04:38:04;95143.72;;;7.07;100.00
8059;BME280;4072;42.668;23.396;2023-04-23T04:40:33;95146.50;;;7.03;100.00
8059;BME280;4072;42.668;23.396;2023-04-23T04:43:01;95147.75;;;7.15;100.00
8059;BME280;4072;42.668;23.396;2023-04-23T04:45:30;95148.00;;;7.20;100.00
8059;BME280;4072;42.668;23.396;2023-04-23T04:47:58;95151.34;;;7.24;100.00
8059;BME280;4072;42.668;23.396;2023-04-23T04:50:26;95153.97;;;7.28;100.00
8059;BME280;4072;42.668;23.396;2023-04-23T04:52:56;95151.09;;;7.35;100.00
8059;BME280;4072;42.668;23.396;2023-04-23T04:55:24;95139.38;;;7.41;100.00
8059;BME280;4072;42.668;23.396;2023-04-23T04:57:52;95156.69;;;7.56;100.00
8059;BME280;4072;42.668;23.396;2023-04-23T05:00:23;95150.69;;;7.65;100.00
8059;BME280;4072;42.668;23.396;2023-04-23T05:02:54;95130.34;;;7.64;100.00
8059;BME280;4072;42.668;23.396;2023-04-23T05:05:25;95159.88;;;7.80;100.00
8059;BME280;4072;42.668;23.396;2023-04-23T05:07:54;95100.34;;;7.49;100.00
8059;BME280;4072;42.668;23.396;2023-04-23T05:10:26;95148.53;;;8.01;100.00
8059;BME280;4072;42.668;23.396;2023-04-23T05:12:55;95158.91;;;8.15;100.00
8059;BME280;4072;42.668;23.396;2023-04-23T05:15:23;95153.72;;;8.36;100.00
8059;BME280;4072;42.668;23.396;2023-04-23T05:17:52;95157.63;;;8.60;100.00
8059;BME280;4072;42.668;23.396;2023-04-23T05:20:21;95160.97;;;8.77;100.00
8059;BME280;4072;42.668;23.396;2023-04-23T05:22:49;95151.41;;;9.10;100.00
8059;BME280;4072;42.668;23.396;2023-04-23T05:25:17;95153.22;;;9.26;100.00
8059;BME280;4072;42.668;23.396;2023-04-23T05:27:47;95153.69;;;9.58;100.00
8059;BME280;4072;42.668;23.396;2023-04-23T05:30:15;95149.88;;;9.68;100.00
8059;BME280;4072;42.668;23.396;2023-04-23T05:32:44;95138.88;;;9.84;100.00
8059;BME280;4072;42.668;23.396;2023-04-23T05:35:12;95139.88;;;9.78;100.00
8059;BME280;4072;42.668;23.396;2023-04-23T05:37:40;95135.25;;;9.44;100.00
8059;BME280;4072;42.668;23.396;2023-04-23T05:40:10;95157.78;;;9.63;100.00
8059;BME280;4072;42.668;23.396;2023-04-23T05:42:38;95161.31;;;9.72;100.00
8059;BME280;4072;42.668;23.396;2023-04-23T05:45:09;95144.81;;;9.92;100.00
8059;BME280;4072;42.668;23.396;2023-04-23T05:47:37;95153.88;;;10.19;100.00
8059;BME280;4072;42.668;23.396;2023-04-23T05:50:06;95152.72;;;10.29;100.00
8059;BME280;4072;42.668;23.396;2023-04-23T05:52:35;95155.75;;;10.31;100.00
8059;BME280;4072;42.668;23.396;2023-04-23T05:55:05;95142.44;;;10.15;100.00
8059;BME280;4072;42.668;23.396;2023-04-23T05:57:36;95125.16;;;10.13;100.00
8059;BME280;4072;42.668;23.396;2023-04-23T06:00:05;95152.28;;;10.61;100.00
8059;BME280;4072;42.668;23.396;2023-04-23T06:02:38;95145.75;;;10.80;100.00
8059;BME280;4072;42.668;23.396;2023-04-23T06:05:07;95145.25;;;11.03;100.00
8059;BME280;4072;42.668;23.396;2023-04-23T06:07:36;95139.75;;;11.25;100.00
8059;BME280;4072;42.668;23.396;2023-04-23T06:10:05;95149.22;;;11.38;100.00
8059;BME280;4072;42.668;23.396;2023-04-23T06:12:33;95115.97;;;11.38;100.00
8059;BME280;4072;42.668;23.396;2023-04-23T06:15:06;95144.78;;;11.80;100.00
8059;BME280;4072;42.668;23.396;2023-04-23T06:17:35;95147.31;;;12.02;100.00
8059;BME280;4072;42.668;23.396;2023-04-23T06:20:06;95141.84;;;12.38;100.00
8059;BME280;4072;42.668;23.396;2023-04-23T06:22:34;95135.22;;;12.81;100.00
8059;BME280;4072;42.668;23.396;2023-04-23T06:25:03;95136.50;;;13.03;100.00
8059;BME280;4072;42.668;23.396;2023-04-23T06:27:31;95140.97;;;13.15;100.00
8059;BME280;4072;42.668;23.396;2023-04-23T06:30:00;95129.22;;;12.77;100.00
8059;BME280;4072;42.668;23.396;2023-04-23T06:32:28;95144.59;;;12.71;100.00
8059;BME280;4072;42.668;23.396;2023-04-23T06:34:56;95021.16;;;12.34;100.00
8059;BME280;4072;42.668;23.396;2023-04-23T06:37:29;95102.94;;;12.83;100.00
8059;BME280;4072;42.668;23.396;2023-04-23T06:39:57;95068.91;;;12.73;100.00
8059;BME280;4072;42.668;23.396;2023-04-23T06:42:26;95145.44;;;13.27;100.00
8059;BME280;4072;42.668;23.396;2023-04-23T06:44:54;95139.59;;;13.20;100.00
8059;BME280;4072;42.668;23.396;2023-04-23T06:47:24;95138.44;;;13.12;100.00
8059;BME280;4072;42.668;23.396;2023-04-23T06:49:52;95136.59;;;13.65;100.00
8059;BME280;4072;42.668;23.396;2023-04-23T06:52:20;95123.63;;;13.60;100.00
8059;BME280;4072;42.668;23.396;2023-04-23T06:54:50;95135.31;;;13.75;100.00
8059;BME280;4072;42.668;23.396;2023-04-23T06:57:18;95140.13;;;13.94;100.00
8059;BME280;4072;42.668;23.396;2023-04-23T06:59:47;95145.53;;;14.18;100.00
8059;BME280;4072;42.668;23.396;2023-04-23T07:02:15;95128.72;;;14.19;100.00
8059;BME280;4072;42.668;23.396;2023-04-23T07:04:45;95132.97;;;14.64;100.00
8059;BME280;4072;42.668;23.396;2023-04-23T07:07:13;95127.69;;;14.90;100.00
8059;BME280;4072;42.668;23.396;2023-04-23T07:09:44;95128.28;;;14.79;100.00
8059;BME280;4072;42.668;23.396;2023-04-23T07:12:13;95120.94;;;14.85;100.00
8059;BME280;4072;42.668;23.396;2023-04-23T07:14:42;95093.59;;;14.45;100.00
8059;BME280;4072;42.668;23.396;2023-04-23T07:17:12;95131.13;;;14.70;100.00
8059;BME280;4072;42.668;23.396;2023-04-23T07:19:40;95126.09;;;14.98;100.00
8059;BME280;4072;42.668;23.396;2023-04-23T07:22:08;95121.78;;;15.26;100.00
8059;BME280;4072;42.668;23.396;2023-04-23T07:24:36;95120.47;;;15.21;100.00
8059;BME280;4072;42.668;23.396;2023-04-23T07:27:05;95117.91;;;14.98;100.00
8059;BME280;4072;42.668;23.396;2023-04-23T07:29:36;95126.94;;;15.38;100.00
8059;BME280;4072;42.668;23.396;2023-04-23T07:32:04;95119.97;;;15.57;97.22
8059;BME280;4072;42.668;23.396;2023-04-23T07:34:32;95109.97;;;15.69;94.24
8059;BME280;4072;42.668;23.396;2023-04-23T07:37:03;95074.63;;;15.20;97.53
8059;BME280;4072;42.668;23.396;2023-04-23T07:39:32;95118.06;;;15.43;95.82
8059;BME280;4072;42.668;23.396;2023-04-23T07:42:00;95117.19;;;15.52;94.71
8059;BME280;4072;42.668;23.396;2023-04-23T07:44:28;95108.75;;;15.50;94.38
8059;BME280;4072;42.668;23.396;2023-04-23T07:47:00;95119.09;;;15.46;95.37
8059;BME280;4072;42.668;23.396;2023-04-23T07:49:29;95123.13;;;15.70;95.84
8059;BME280;4072;42.668;23.396;2023-04-23T07:51:57;95119.00;;;16.00;91.85
8059;BME280;4072;42.668;23.396;2023-04-23T07:54:26;95121.94;;;15.77;87.58
8059;BME280;4072;42.668;23.396;2023-04-23T07:56:54;95122.66;;;15.92;88.67
8059;BME280;4072;42.668;23.396;2023-04-23T07:59:22;95117.72;;;15.76;89.74
8059;BME280;4072;42.668;23.396;2023-04-23T08:01:50;95120.09;;;15.88;88.11
8059;BME280;4072;42.668;23.396;2023-04-23T08:04:20;95114.25;;;15.75;90.75
8059;BME280;4072;42.668;23.396;2023-04-23T08:06:49;95113.88;;;15.62;91.18
8059;BME280;4072;42.668;23.396;2023-04-23T08:09:17;95119.03;;;15.60;90.88
8059;BME280;4072;42.668;23.396;2023-04-23T08:11:45;95118.28;;;15.40;92.30
8059;BME280;4072;42.668;23.396;2023-04-23T08:14:13;95117.25;;;15.57;92.02
8059;BME280;4072;42.668;23.396;2023-04-23T08:16:42;95119.69;;;15.75;89.03
8059;BME280;4072;42.668;23.396;2023-04-23T08:19:10;95117.00;;;15.55;89.80
8059;BME280;4072;42.668;23.396;2023-04-23T08:21:39;95118.97;;;15.55;89.80
8059;BME280;4072;42.668;23.396;2023-04-23T08:24:08;95110.50;;;15.53;87.87
8059;BME280;4072;42.668;23.396;2023-04-23T08:26:36;95109.28;;;15.19;92.09
8059;BME280;4072;42.668;23.396;2023-04-23T08:29:04;95117.28;;;15.23;92.78
8059;BME280;4072;42.668;23.396;2023-04-23T08:31:34;95106.00;;;15.15;91.55
8059;BME280;4072;42.668;23.396;2023-04-23T08:34:03;95059.25;;;14.82;88.63
8059;BME280;4072;42.668;23.396;2023-04-23T08:36:30;95109.41;;;15.10;88.66
8059;BME280;4072;42.668;23.396;2023-04-23T08:39:00;95090.19;;;14.99;87.73
8059;BME280;4072;42.668;23.396;2023-04-23T08:41:34;95076.13;;;14.86;88.25
8059;BME280;4072;42.668;23.396;2023-04-23T08:44:11;95110.59;;;14.89;88.54
8059;BME280;4072;42.668;23.396;2023-04-23T08:46:42;95095.94;;;15.21;84.07
8059;BME280;4072;42.668;23.396;2023-04-23T08:49:13;95093.22;;;15.21;82.92
8059;BME280;4072;42.668;23.396;2023-04-23T08:51:47;95089.81;;;15.06;84.51
8059;BME280;4072;42.668;23.396;2023-04-23T08:54:21;95086.81;;;15.24;83.48
8059;BME280;4072;42.668;23.396;2023-04-23T08:56:54;95098.28;;;15.28;84.48
8059;BME280;4072;42.668;23.396;2023-04-23T08:59:24;95082.56;;;15.78;80.78
8059;BME280;4072;42.668;23.396;2023-04-23T09:01:52;95095.59;;;16.14;76.25
8059;BME280;4072;42.668;23.396;2023-04-23T09:04:23;95087.97;;;16.23;71.96
8059;BME280;4072;42.668;23.396;2023-04-23T09:06:52;95092.28;;;16.04;72.93
8059;BME280;4072;42.668;23.396;2023-04-23T09:09:22;95088.72;;;15.98;75.42
8059;BME280;4072;42.668;23.396;2023-04-23T09:11:52;95078.97;;;16.17;74.96
8059;BME280;4072;42.668;23.396;2023-04-23T09:14:26;95075.22;;;16.40;72.16
8059;BME280;4072;42.668;23.396;2023-04-23T09:16:54;95089.44;;;16.75;70.90
8059;BME280;4072;42.668;23.396;2023-04-23T09:19:24;95083.81;;;16.90;67.48
8059;BME280;4072;42.668;23.396;2023-04-23T09:21:57;95082.03;;;16.81;67.06
8059;BME280;4072;42.668;23.396;2023-04-23T09:24:28;95076.03;;;16.46;66.20
8059;BME280;4072;42.668;23.396;2023-04-23T09:26:57;95058.53;;;16.07;69.44
8059;BME280;4072;42.668;23.396;2023-04-23T09:29:25;95074.47;;;16.14;69.67
8059;BME280;4072;42.668;23.396;2023-04-23T09:31:55;95054.25;;;16.26;69.77
8059;BME280;4072;42.668;23.396;2023-04-23T09:34:24;95059.56;;;16.66;68.65
8059;BME280;4072;42.668;23.396;2023-04-23T09:36:54;95053.50;;;16.51;67.01
8059;BME280;4072;42.668;23.396;2023-04-23T09:39:22;95059.53;;;16.35;67.09
8059;BME280;4072;42.668;23.396;2023-04-23T09:41:52;95059.28;;;16.33;69.59
8059;BME280;4072;42.668;23.396;2023-04-23T09:44:21;95060.16;;;16.81;65.11
8059;BME280;4072;42.668;23.396;2023-04-23T09:46:49;95040.06;;;17.26;63.07
8059;BME280;4072;42.668;23.396;2023-04-23T09:49:17;95043.72;;;17.12;61.16
8059;BME280;4072;42.668;23.396;2023-04-23T09:51:46;95046.34;;;16.90;60.69
8059;BME280;4072;42.668;23.396;2023-04-23T09:54:16;95044.16;;;17.00;61.97
8059;BME280;4072;42.668;23.396;2023-04-23T09:56:48;95042.41;;;17.02;58.51
8059;BME280;4072;42.668;23.396;2023-04-23T09:59:23;95044.91;;;17.48;55.33
8059;BME280;4072;42.668;23.396;2023-04-23T10:02:12;95041.50;;;17.70;54.47
8059;BME280;4072;42.668;23.396;2023-04-23T10:04:40;95034.28;;;17.67;55.44
8059;BME280;4072;42.668;23.396;2023-04-23T10:07:09;95029.03;;;17.58;57.08
8059;BME280;4072;42.668;23.396;2023-04-23T10:09:46;94970.00;;;16.81;57.37
8059;BME280;4072;42.668;23.396;2023-04-23T10:12:16;95026.81;;;17.14;57.21
8059;BME280;4072;42.668;23.396;2023-04-23T10:15:06;95030.88;;;17.29;55.20
8059;BME280;4072;42.668;23.396;2023-04-23T10:17:36;95027.06;;;17.10;55.59
8059;BME280;4072;42.668;23.396;2023-04-23T10:20:06;94993.94;;;17.51;54.14
8059;BME280;4072;42.668;23.396;2023-04-23T10:22:35;95005.47;;;17.88;50.81
8059;BME280;4072;42.668;23.396;2023-04-23T10:25:08;95012.19;;;17.92;49.74
8059;BME280;4072;42.668;23.396;2023-04-23T10:27:38;95014.72;;;17.96;49.17
8059;BME280;4072;42.668;23.396;2023-04-23T10:30:21;94969.56;;;17.52;45.70
8059;BME280;4072;42.668;23.396;2023-04-23T10:32:52;94992.00;;;17.68;47.00
8059;BME280;4072;42.668;23.396;2023-04-23T10:35:21;94991.50;;;17.64;48.11
8059;BME280;4072;42.668;23.396;2023-04-23T10:37:49;94991.97;;;17.51;48.83
8059;BME280;4072;42.668;23.396;2023-04-23T10:40:20;94951.75;;;17.09;50.54
8059;BME280;4072;42.668;23.396;2023-04-23T10:42:52;94986.16;;;17.32;49.15
8059;BME280;4072;42.668;23.396;2023-04-23T10:45:23;94995.50;;;17.15;48.66
8059;BME280;4072;42.668;23.396;2023-04-23T10:47:52;94992.13;;;17.36;47.77
8059;BME280;4072;42.668;23.396;2023-04-23T10:50:23;94987.00;;;17.50;49.37
8059;BME280;4072;42.668;23.396;2023-04-23T10:52:53;94976.31;;;17.57;47.06
8059;BME280;4072;42.668;23.396;2023-04-23T10:55:24;94975.13;;;17.86;45.68
8059;BME280;4072;42.668;23.396;2023-04-23T10:57:59;94975.63;;;17.90;45.91
8059;BME280;4072;42.668;23.396;2023-04-23T11:00:44;94963.97;;;18.28;44.67
8059;BME280;4072;42.668;23.396;2023-04-23T11:03:27;94975.41;;;18.21;43.93
8059;BME280;4072;42.668;23.396;2023-04-23T11:05:57;94972.16;;;18.28;43.45
8059;BME280;4072;42.668;23.396;2023-04-23T11:08:25;94961.22;;;18.50;41.61
8059;BME280;4072;42.668;23.396;2023-04-23T11:10:54;94965.41;;;18.73;41.00
8059;BME280;4072;42.668;23.396;2023-04-23T11:13:23;94962.31;;;19.09;39.46
8059;BME280;4072;42.668;23.396;2023-04-23T11:16:16;94961.06;;;19.16;38.94
8059;BME280;4072;42.668;23.396;2023-04-23T11:18:57;94940.00;;;19.46;39.55
8059;BME280;4072;42.668;23.396;2023-04-23T11:21:55;94952.03;;;19.32;38.66
8059;BME280;4072;42.668;23.396;2023-04-23T11:24:24;94942.69;;;19.51;39.69
8059;BME280;4072;42.668;23.396;2023-04-23T11:26:52;94920.88;;;19.24;40.26
8059;BME280;4072;42.668;23.396;2023-04-23T11:29:21;94936.50;;;19.51;39.49
8059;BME280;4072;42.668;23.396;2023-04-23T11:31:52;94934.91;;;19.61;38.61
8059;BME280;4072;42.668;23.396;2023-04-23T11:34:29;94925.25;;;19.89;36.92
8059;BME280;4072;42.668;23.396;2023-04-23T11:36:58;94902.94;;;19.69;36.47
8059;BME280;4072;42.668;23.396;2023-04-23T11:39:27;94930.94;;;19.97;34.74
8059;BME280;4072;42.668;23.396;2023-04-23T11:41:55;94926.69;;;19.61;35.03
8059;BME280;4072;42.668;23.396;2023-04-23T11:44:25;94907.59;;;19.39;36.89
8059;BME280;4072;42.668;23.396;2023-04-23T11:46:58;94908.47;;;19.12;36.92
8059;BME280;4072;42.668;23.396;2023-04-23T11:49:27;94903.53;;;19.05;37.14
8059;BME280;4072;42.668;23.396;2023-04-23T11:51:58;94918.06;;;18.83;37.02
8059;BME280;4072;42.668;23.396;2023-04-23T11:54:27;94909.44;;;18.52;36.52
8059;BME280;4072;42.668;23.396;2023-04-23T11:56:56;94913.44;;;18.40;37.57
8059;BME280;4072;42.668;23.396;2023-04-23T11:59:25;94911.44;;;18.46;37.86
8059;BME280;4072;42.668;23.396;2023-04-23T12:01:56;94900.34;;;18.84;38.39
8059;BME280;4072;42.668;23.396;2023-04-23T12:04:26;94893.53;;;19.07;37.17
8059;BME280;4072;42.668;23.396;2023-04-23T12:06:55;94896.69;;;19.22;37.44
8059;BME280;4072;42.668;23.396;2023-04-23T12:09:24;94903.22;;;19.14;36.33
8059;BME280;4072;42.668;23.396;2023-04-23T12:11:53;94885.03;;;19.11;36.14
8059;BME280;4072;42.668;23.396;2023-04-23T12:14:26;94893.09;;;18.98;36.17
8059;BME280;4072;42.668;23.396;2023-04-23T12:16:57;94892.31;;;19.03;36.00
8059;BME280;4072;42.668;23.396;2023-04-23T12:19:35;94887.16;;;19.40;34.50
8059;BME280;4072;42.668;23.396;2023-04-23T12:22:03;94890.34;;;19.49;33.32
8059;BME280;4072;42.668;23.396;2023-04-23T12:24:45;94889.53;;;19.60;34.04
8059;BME280;4072;42.668;23.396;2023-04-23T12:27:14;94894.78;;;19.58;32.96
8059;BME280;4072;42.668;23.396;2023-04-23T12:29:46;94888.50;;;19.63;33.54
8059;BME280;4072;42.668;23.396;2023-04-23T12:32:16;94882.59;;;19.53;34.17
8059;BME280;4072;42.668;23.396;2023-04-23T12:34:50;94872.63;;;19.04;34.55
8059;BME280;4072;42.668;23.396;2023-04-23T12:37:23;94879.06;;;19.12;35.01
8059;BME280;4072;42.668;23.396;2023-04-23T12:39:52;94872.03;;;19.63;33.92
8059;BME280;4072;42.668;23.396;2023-04-23T12:42:22;94871.78;;;19.96;33.16
8059;BME280;4072;42.668;23.396;2023-04-23T12:44:50;94870.75;;;19.99;32.23
8059;BME280;4072;42.668;23.396;2023-04-23T12:47:23;94868.16;;;19.47;32.63
8059;BME280;4072;42.668;23.396;2023-04-23T12:49:51;94869.63;;;19.48;33.10
8059;BME280;4072;42.668;23.396;2023-04-23T12:52:21;94864.72;;;19.36;33.03
8059;BME280;4072;42.668;23.396;2023-04-23T12:54:49;94859.81;;;19.18;33.02
8059;BME280;4072;42.668;23.396;2023-04-23T12:57:22;94860.91;;;19.04;33.64
8059;BME280;4072;42.668;23.396;2023-04-23T12:59:50;94868.44;;;18.87;33.52
8059;BME280;4072;42.668;23.396;2023-04-23T13:02:23;94868.72;;;18.83;33.40
8059;BME280;4072;42.668;23.396;2023-04-23T13:04:51;94870.47;;;18.81;33.16
8059;BME280;4072;42.668;23.396;2023-04-23T13:07:25;94862.31;;;18.70;33.05
8059;BME280;4072;42.668;23.396;2023-04-23T13:09:54;94876.72;;;18.76;33.04
8059;BME280;4072;42.668;23.396;2023-04-23T13:12:23;94865.47;;;18.85;33.39
8059;BME280;4072;42.668;23.396;2023-04-23T13:14:52;94872.66;;;18.99;32.91
8059;BME280;4072;42.668;23.396;2023-04-23T13:17:20;94853.44;;;19.04;32.94
8059;BME280;4072;42.668;23.396;2023-04-23T13:19:50;94845.72;;;19.03;32.31
8059;BME280;4072;42.668;23.396;2023-04-23T13:22:18;94841.53;;;18.91;32.56
8059;BME280;4072;42.668;23.396;2023-04-23T13:24:46;94844.28;;;18.91;32.53